sensor_id;sensor_type;location;lat;lon;timestamp;temperature;humidity
9820;DHT22;4949;48.482;9.206;2023-12-04T00:02:33;-2.40;91.50
9820;DHT22;4949;48.482;9.206;2023-12-04T00:07:34;-2.60;92.10
9820;DHT22;4949;48.482;9.206;2023-12-04T00:12:37;-2.20;92.00
9820;DHT22;4949;48.482;9.206;2023-12-04T00:17:37;-3.00;91.60
9820;DHT22;4949;48.482;9.206;2023-12-04T00:22:40;-2.80;91.80
9820;DHT22;4949;48.482;9.206;2023-12-04T00:27:41;-2.80;91.70
9820;DHT22;4949;48.482;9.206;2023-12-04T00:32:42;-2.80;91.30
9820;DHT22;4949;48.482;9.206;2023-12-04T00:37:51;-2.70;91.60
9820;DHT22;4949;48.482;9.206;2023-12-04T00:42:52;-2.80;92.00
9820;DHT22;4949;48.482;9.206;2023-12-04T00:47:55;-3.50;91.80
9820;DHT22;4949;48.482;9.206;2023-12-04T00:52:56;-3.80;91.70
9820;DHT22;4949;48.482;9.206;2023-12-04T00:57:57;-3.40;92.10
9820;DHT22;4949;48.482;9.206;2023-12-04T01:03:00;-3.50;92.20
9820;DHT22;4949;48.482;9.206;2023-12-04T01:08:00;-3.10;92.60
9820;DHT22;4949;48.482;9.206;2023-12-04T01:13:01;-3.10;92.80
9820;DHT22;4949;48.482;9.206;2023-12-04T01:18:02;-3.80;92.50
9820;DHT22;4949;48.482;9.206;2023-12-04T01:23:03;-3.70;92.50
9820;DHT22;4949;48.482;9.206;2023-12-04T01:28:04;-3.70;92.80
9820;DHT22;4949;48.482;9.206;2023-12-04T01:33:05;-4.00;92.40
9820;DHT22;4949;48.482;9.206;2023-12-04T01:38:06;-3.50;92.70
9820;DHT22;4949;48.482;9.206;2023-12-04T01:43:09;-3.80;93.10
9820;DHT22;4949;48.482;9.206;2023-12-04T01:48:10;-3.70;93.20
9820;DHT22;4949;48.482;9.206;2023-12-04T01:53:11;-3.70;93.70
9820;DHT22;4949;48.482;9.206;2023-12-04T01:58:14;-3.30;93.20
9820;DHT22;4949;48.482;9.206;2023-12-04T02:03:17;-4.10;93.00
9820;DHT22;4949;48.482;9.206;2023-12-04T02:08:21;-4.20;93.00
9820;DHT22;4949;48.482;9.206;2023-12-04T02:13:22;-3.70;93.60
9820;DHT22;4949;48.482;9.206;2023-12-04T02:18:28;-3.40;94.10
9820;DHT22;4949;48.482;9.206;2023-12-04T02:23:31;-3.50;94.20
9820;DHT22;4949;48.482;9.206;2023-12-04T02:28:36;-3.30;94.30
9820;DHT22;4949;48.482;9.206;2023-12-04T02:33:39;-3.30;93.80
9820;DHT22;4949;48.482;9.206;2023-12-04T02:38:41;-3.30;94.00
9820;DHT22;4949;48.482;9.206;2023-12-04T02:43:42;-3.80;94.00
9820;DHT22;4949;48.482;9.206;2023-12-04T02:48:45;-3.70;93.40
9820;DHT22;4949;48.482;9.206;2023-12-04T02:53:46;-3.90;93.50
9820;DHT22;4949;48.482;9.206;2023-12-04T02:58:49;-3.20;94.10
9820;DHT22;4949;48.482;9.206;2023-12-04T03:03:52;-3.50;93.60
9820;DHT22;4949;48.482;9.206;2023-12-04T03:08:56;-4.00;93.50
9820;DHT22;4949;48.482;9.206;2023-12-04T03:14:00;-4.00;93.50
9820;DHT22;4949;48.482;9.206;2023-12-04T03:19:03;-3.60;94.10
9820;DHT22;4949;48.482;9.206;2023-12-04T03:24:06;-3.40;94.10
9820;DHT22;4949;48.482;9.206;2023-12-04T03:29:07;-3.80;93.90
9820;DHT22;4949;48.482;9.206;2023-12-04T03:34:07;-3.40;93.30
9820;DHT22;4949;48.482;9.206;2023-12-04T03:39:10;-3.10;93.10
9820;DHT22;4949;48.482;9.206;2023-12-04T03:44:13;-3.20;93.00
9820;DHT22;4949;48.482;9.206;2023-12-04T03:49:16;-3.10;92.80
9820;DHT22;4949;48.482;9.206;2023-12-04T03:54:17;-2.70;93.50
9820;DHT22;4949;48.482;9.206;2023-12-04T03:59:25;-3.70;93.30
9820;DHT22;4949;48.482;9.206;2023-12-04T04:04:26;-3.40;94.00
9820;DHT22;4949;48.482;9.206;2023-12-04T04:09:29;-3.80;94.00
9820;DHT22;4949;48.482;9.206;2023-12-04T04:14:30;-3.00;94.60
9820;DHT22;4949;48.482;9.206;2023-12-04T04:19:33;-3.30;94.30
9820;DHT22;4949;48.482;9.206;2023-12-04T04:24:33;-3.40;94.30
9820;DHT22;4949;48.482;9.206;2023-12-04T04:29:34;-3.60;94.40
9820;DHT22;4949;48.482;9.206;2023-12-04T04:34:39;-3.20;94.20
9820;DHT22;4949;48.482;9.206;2023-12-04T04:39:40;-3.20;94.10
9820;DHT22;4949;48.482;9.206;2023-12-04T04:44:41;-3.60;94.30
9820;DHT22;4949;48.482;9.206;2023-12-04T04:49:42;-3.30;94.10
9820;DHT22;4949;48.482;9.206;2023-12-04T04:54:43;-3.20;94.40
9820;DHT22;4949;48.482;9.206;2023-12-04T04:59:44;-3.40;94.40
9820;DHT22;4949;48.482;9.206;2023-12-04T05:04:49;-3.50;94.20
9820;DHT22;4949;48.482;9.206;2023-12-04T05:09:52;-3.60;94.30
9820;DHT22;4949;48.482;9.206;2023-12-04T05:14:54;-3.20;94.30
9820;DHT22;4949;48.482;9.206;2023-12-04T05:19:55;-3.50;94.30
9820;DHT22;4949;48.482;9.206;2023-12-04T05:24:59;-3.20;94.50
9820;DHT22;4949;48.482;9.206;2023-12-04T05:29:59;-3.40;94.40
9820;DHT22;4949;48.482;9.206;2023-12-04T05:35:00;-3.40;94.30
9820;DHT22;4949;48.482;9.206;2023-12-04T05:40:01;-3.80;94.10
9820;DHT22;4949;48.482;9.206;2023-12-04T05:45:04;-3.10;94.10
9820;DHT22;4949;48.482;9.206;2023-12-04T05:50:08;-3.20;92.50
9820;DHT22;4949;48.482;9.206;2023-12-04T05:55:11;-2.90;92.00
9820;DHT22;4949;48.482;9.206;2023-12-04T06:00:15;-2.80;92.00
9820;DHT22;4949;48.482;9.206;2023-12-04T06:05:16;-2.80;91.70
9820;DHT22;4949;48.482;9.206;2023-12-04T06:10:16;-3.10;91.60
9820;DHT22;4949;48.482;9.206;2023-12-04T06:15:17;-2.80;91.60
9820;DHT22;4949;48.482;9.206;2023-12-04T06:20:18;-2.90;91.50
9820;DHT22;4949;48.482;9.206;2023-12-04T06:25:19;-3.20;91.30
9820;DHT22;4949;48.482;9.206;2023-12-04T06:30:20;-2.80;91.90
9820;DHT22;4949;48.482;9.206;2023-12-04T06:35:21;-2.70;91.30
9820;DHT22;4949;48.482;9.206;2023-12-04T06:40:27;-2.50;91.40
9820;DHT22;4949;48.482;9.206;2023-12-04T06:45:28;-2.70;91.30
9820;DHT22;4949;48.482;9.206;2023-12-04T06:50:29;-2.70;92.00
9820;DHT22;4949;48.482;9.206;2023-12-04T06:55:34;-3.10;92.70
9820;DHT22;4949;48.482;9.206;2023-12-04T07:00:35;-2.80;93.20
9820;DHT22;4949;48.482;9.206;2023-12-04T07:05:38;-3.20;93.20
9820;DHT22;4949;48.482;9.206;2023-12-04T07:10:39;-2.90;93.40
9820;DHT22;4949;48.482;9.206;2023-12-04T07:15:42;-2.80;93.50
9820;DHT22;4949;48.482;9.206;2023-12-04T07:20:43;-2.30;93.90
9820;DHT22;4949;48.482;9.206;2023-12-04T07:25:44;-2.80;94.00
9820;DHT22;4949;48.482;9.206;2023-12-04T07:30:46;-2.90;93.70
9820;DHT22;4949;48.482;9.206;2023-12-04T07:35:49;-3.10;93.80
9820;DHT22;4949;48.482;9.206;2023-12-04T07:40:57;-2.80;93.70
9820;DHT22;4949;48.482;9.206;2023-12-04T07:46:02;-2.40;93.70
9820;DHT22;4949;48.482;9.206;2023-12-04T07:51:06;-2.60;93.80
9820;DHT22;4949;48.482;9.206;2023-12-04T07:56:12;-2.60;94.10
9820;DHT22;4949;48.482;9.206;2023-12-04T08:01:15;-2.80;93.70
9820;DHT22;4949;48.482;9.206;2023-12-04T08:06:16;-2.40;93.90
9820;DHT22;4949;48.482;9.206;2023-12-04T08:11:19;-3.00;93.80
9820;DHT22;4949;48.482;9.206;2023-12-04T08:16:20;-2.80;93.80
9820;DHT22;4949;48.482;9.206;2023-12-04T08:21:20;-2.90;93.60
9820;DHT22;4949;48.482;9.206;2023-12-04T08:26:24;-2.60;93.60
9820;DHT22;4949;48.482;9.206;2023-12-04T08:31:28;-3.20;93.30
9820;DHT22;4949;48.482;9.206;2023-12-04T08:36:28;-3.00;93.20
9820;DHT22;4949;48.482;9.206;2023-12-04T08:41:29;-2.60;93.60
9820;DHT22;4949;48.482;9.206;2023-12-04T08:46:30;-2.50;93.60
9820;DHT22;4949;48.482;9.206;2023-12-04T08:51:31;-2.50;91.90
9820;DHT22;4949;48.482;9.206;2023-12-04T08:56:32;-2.10;91.80
9820;DHT22;4949;48.482;9.206;2023-12-04T09:01:35;-2.40;91.90
9820;DHT22;4949;48.482;9.206;2023-12-04T09:06:39;-2.30;92.00
9820;DHT22;4949;48.482;9.206;2023-12-04T09:11:43;-1.90;92.70
9820;DHT22;4949;48.482;9.206;2023-12-04T09:16:44;-1.70;92.60
9820;DHT22;4949;48.482;9.206;2023-12-04T09:21:49;-1.60;93.00
9820;DHT22;4949;48.482;9.206;2023-12-04T09:26:50;-1.90;91.10
9820;DHT22;4949;48.482;9.206;2023-12-04T09:31:53;-2.10;91.10
9820;DHT22;4949;48.482;9.206;2023-12-04T09:36:54;-1.90;91.40
9820;DHT22;4949;48.482;9.206;2023-12-04T09:41:55;-1.90;92.10
9820;DHT22;4949;48.482;9.206;2023-12-04T09:46:56;-1.80;93.30
9820;DHT22;4949;48.482;9.206;2023-12-04T09:52:01;-1.60;92.40
9820;DHT22;4949;48.482;9.206;2023-12-04T09:57:05;-1.90;94.00
9820;DHT22;4949;48.482;9.206;2023-12-04T10:02:06;-1.50;94.20
9820;DHT22;4949;48.482;9.206;2023-12-04T10:07:07;-1.90;93.50
9820;DHT22;4949;48.482;9.206;2023-12-04T10:12:12;-1.40;94.30
9820;DHT22;4949;48.482;9.206;2023-12-04T10:17:16;-0.70;93.90
9820;DHT22;4949;48.482;9.206;2023-12-04T10:22:18;-1.10;94.10
9820;DHT22;4949;48.482;9.206;2023-12-04T10:27:26;-1.00;93.50
9820;DHT22;4949;48.482;9.206;2023-12-04T10:32:29;-1.40;93.50
9820;DHT22;4949;48.482;9.206;2023-12-04T10:37:32;-1.20;93.90
9820;DHT22;4949;48.482;9.206;2023-12-04T10:42:39;-0.80;94.30
9820;DHT22;4949;48.482;9.206;2023-12-04T10:47:44;-0.60;94.60
9820;DHT22;4949;48.482;9.206;2023-12-04T10:52:48;-0.80;94.80
9820;DHT22;4949;48.482;9.206;2023-12-04T10:57:51;-0.20;94.50
9820;DHT22;4949;48.482;9.206;2023-12-04T11:02:56;-0.70;94.70
9820;DHT22;4949;48.482;9.206;2023-12-04T11:08:00;-0.90;95.00
9820;DHT22;4949;48.482;9.206;2023-12-04T11:13:16;-0.90;94.80
9820;DHT22;4949;48.482;9.206;2023-12-04T11:18:23;-0.70;94.30
9820;DHT22;4949;48.482;9.206;2023-12-04T11:23:31;-0.60;94.20
9820;DHT22;4949;48.482;9.206;2023-12-04T11:28:34;-0.10;94.70
9820;DHT22;4949;48.482;9.206;2023-12-04T11:33:38;0.00;95.60
9820;DHT22;4949;48.482;9.206;2023-12-04T11:38:44;0.00;95.70
9820;DHT22;4949;48.482;9.206;2023-12-04T11:43:47;0.00;95.70
9820;DHT22;4949;48.482;9.206;2023-12-04T12:05:21;0.20;95.70
9820;DHT22;4949;48.482;9.206;2023-12-04T12:10:23;0.20;95.20
9820;DHT22;4949;48.482;9.206;2023-12-04T12:15:24;0.30;95.30
9820;DHT22;4949;48.482;9.206;2023-12-04T12:20:26;0.90;95.50
9820;DHT22;4949;48.482;9.206;2023-12-04T12:25:29;0.30;95.40
9820;DHT22;4949;48.482;9.206;2023-12-04T12:30:33;1.10;95.90
9820;DHT22;4949;48.482;9.206;2023-12-04T12:35:34;1.10;95.90
9820;DHT22;4949;48.482;9.206;2023-12-04T12:40:35;1.20;96.10
9820;DHT22;4949;48.482;9.206;2023-12-04T12:45:41;0.80;96.40
9820;DHT22;4949;48.482;9.206;2023-12-04T12:50:43;0.70;95.80
9820;DHT22;4949;48.482;9.206;2023-12-04T12:55:45;0.90;96.10
9820;DHT22;4949;48.482;9.206;2023-12-04T13:00:52;1.10;96.20
9820;DHT22;4949;48.482;9.206;2023-12-04T13:05:56;1.20;96.40
9820;DHT22;4949;48.482;9.206;2023-12-04T13:11:01;1.20;96.40
9820;DHT22;4949;48.482;9.206;2023-12-04T13:16:02;0.80;96.30
9820;DHT22;4949;48.482;9.206;2023-12-04T13:21:06;0.80;96.50
9820;DHT22;4949;48.482;9.206;2023-12-04T13:26:10;0.90;96.10
9820;DHT22;4949;48.482;9.206;2023-12-04T13:31:14;0.90;96.40
9820;DHT22;4949;48.482;9.206;2023-12-04T13:36:20;1.00;96.30
9820;DHT22;4949;48.482;9.206;2023-12-04T13:41:21;1.40;96.30
9820;DHT22;4949;48.482;9.206;2023-12-04T13:46:42;0.90;96.90
9820;DHT22;4949;48.482;9.206;2023-12-04T13:51:43;0.70;97.00
9820;DHT22;4949;48.482;9.206;2023-12-04T13:56:46;1.40;97.10
9820;DHT22;4949;48.482;9.206;2023-12-04T14:01:54;1.10;96.80
9820;DHT22;4949;48.482;9.206;2023-12-04T14:07:02;0.90;96.40
9820;DHT22;4949;48.482;9.206;2023-12-04T14:12:08;0.90;96.40
9820;DHT22;4949;48.482;9.206;2023-12-04T14:17:09;1.00;96.60
9820;DHT22;4949;48.482;9.206;2023-12-04T14:22:14;1.40;97.10
9820;DHT22;4949;48.482;9.206;2023-12-04T14:27:18;1.00;97.10
9820;DHT22;4949;48.482;9.206;2023-12-04T14:32:21;1.00;97.10
9820;DHT22;4949;48.482;9.206;2023-12-04T14:37:24;1.00;97.40
9820;DHT22;4949;48.482;9.206;2023-12-04T14:42:30;1.00;97.30
9820;DHT22;4949;48.482;9.206;2023-12-04T14:47:30;0.90;97.60
9820;DHT22;4949;48.482;9.206;2023-12-04T14:52:31;0.80;98.00
9820;DHT22;4949;48.482;9.206;2023-12-04T14:57:44;0.80;97.90
9820;DHT22;4949;48.482;9.206;2023-12-04T15:03:10;0.80;98.10
9820;DHT22;4949;48.482;9.206;2023-12-04T15:08:28;1.30;98.20
9820;DHT22;4949;48.482;9.206;2023-12-04T15:13:42;0.90;98.10
9820;DHT22;4949;48.482;9.206;2023-12-04T15:19:02;0.90;97.70
9820;DHT22;4949;48.482;9.206;2023-12-04T15:24:11;0.80;98.50
9820;DHT22;4949;48.482;9.206;2023-12-04T15:29:12;1.30;98.20
9820;DHT22;4949;48.482;9.206;2023-12-04T15:34:15;1.30;98.10
9820;DHT22;4949;48.482;9.206;2023-12-04T15:39:17;1.20;97.40
9820;DHT22;4949;48.482;9.206;2023-12-04T15:44:22;1.20;97.40
9820;DHT22;4949;48.482;9.206;2023-12-04T15:49:23;1.30;97.30
9820;DHT22;4949;48.482;9.206;2023-12-04T15:54:24;1.60;97.00
9820;DHT22;4949;48.482;9.206;2023-12-04T15:59:24;1.80;96.70
9820;DHT22;4949;48.482;9.206;2023-12-04T16:04:25;2.00;96.60
9820;DHT22;4949;48.482;9.206;2023-12-04T16:09:26;2.50;96.40
9820;DHT22;4949;48.482;9.206;2023-12-04T16:14:26;2.70;95.80
9820;DHT22;4949;48.482;9.206;2023-12-04T16:19:29;2.60;95.70
9820;DHT22;4949;48.482;9.206;2023-12-04T16:24:33;2.70;95.60
9820;DHT22;4949;48.482;9.206;2023-12-04T16:29:37;3.00;94.90
9820;DHT22;4949;48.482;9.206;2023-12-04T16:34:38;3.30;94.50
9820;DHT22;4949;48.482;9.206;2023-12-04T16:39:39;3.50;94.00
9820;DHT22;4949;48.482;9.206;2023-12-04T16:44:45;3.70;93.80
9820;DHT22;4949;48.482;9.206;2023-12-04T16:49:46;3.80;93.80
9820;DHT22;4949;48.482;9.206;2023-12-04T16:54:47;3.90;93.40
9820;DHT22;4949;48.482;9.206;2023-12-04T16:59:51;3.80;93.20
9820;DHT22;4949;48.482;9.206;2023-12-04T17:04:52;3.80;92.70
9820;DHT22;4949;48.482;9.206;2023-12-04T17:10:03;3.70;93.00
9820;DHT22;4949;48.482;9.206;2023-12-04T17:15:07;3.80;91.90
9820;DHT22;4949;48.482;9.206;2023-12-04T17:20:10;3.80;91.50
9820;DHT22;4949;48.482;9.206;2023-12-04T17:25:13;3.80;91.00
9820;DHT22;4949;48.482;9.206;2023-12-04T17:30:16;3.70;90.00
9820;DHT22;4949;48.482;9.206;2023-12-04T17:35:17;3.70;89.30
9820;DHT22;4949;48.482;9.206;2023-12-04T17:40:18;3.70;90.10
9820;DHT22;4949;48.482;9.206;2023-12-04T17:45:19;4.10;90.30
9820;DHT22;4949;48.482;9.206;2023-12-04T17:50:20;3.60;87.80
9820;DHT22;4949;48.482;9.206;2023-12-04T17:55:21;3.60;88.20
9820;DHT22;4949;48.482;9.206;2023-12-04T18:00:27;3.60;89.40
9820;DHT22;4949;48.482;9.206;2023-12-04T18:05:30;3.80;90.60
9820;DHT22;4949;48.482;9.206;2023-12-04T18:10:31;3.50;90.50
9820;DHT22;4949;48.482;9.206;2023-12-04T18:15:32;3.60;90.70
9820;DHT22;4949;48.482;9.206;2023-12-04T18:20:33;3.70;90.70
9820;DHT22;4949;48.482;9.206;2023-12-04T18:25:34;3.40;90.40
9820;DHT22;4949;48.482;9.206;2023-12-04T18:30:35;3.40;90.30
9820;DHT22;4949;48.482;9.206;2023-12-04T18:35:41;3.30;90.20
9820;DHT22;4949;48.482;9.206;2023-12-04T18:40:43;3.20;90.20
9820;DHT22;4949;48.482;9.206;2023-12-04T18:45:49;3.10;90.20
9820;DHT22;4949;48.482;9.206;2023-12-04T18:50:53;3.00;90.20
9820;DHT22;4949;48.482;9.206;2023-12-04T18:55:54;2.90;90.30
9820;DHT22;4949;48.482;9.206;2023-12-04T19:00:55;2.90;90.60
9820;DHT22;4949;48.482;9.206;2023-12-04T19:05:56;2.80;90.70
9820;DHT22;4949;48.482;9.206;2023-12-04T19:10:59;2.80;91.10
9820;DHT22;4949;48.482;9.206;2023-12-04T19:16:04;2.70;91.20
9820;DHT22;4949;48.482;9.206;2023-12-04T19:21:09;2.90;91.80
9820;DHT22;4949;48.482;9.206;2023-12-04T19:26:09;3.10;92.20
9820;DHT22;4949;48.482;9.206;2023-12-04T19:31:10;3.30;92.30
9820;DHT22;4949;48.482;9.206;2023-12-04T19:36:11;3.10;92.30
9820;DHT22;4949;48.482;9.206;2023-12-04T19:41:12;3.00;92.40
9820;DHT22;4949;48.482;9.206;2023-12-04T19:46:13;3.00;92.40
9820;DHT22;4949;48.482;9.206;2023-12-04T19:51:16;3.00;92.60
9820;DHT22;4949;48.482;9.206;2023-12-04T19:56:17;2.80;92.60
9820;DHT22;4949;48.482;9.206;2023-12-04T20:01:31;3.20;92.50
9820;DHT22;4949;48.482;9.206;2023-12-04T20:06:32;3.20;92.40
9820;DHT22;4949;48.482;9.206;2023-12-04T20:11:33;3.20;92.10
9820;DHT22;4949;48.482;9.206;2023-12-04T20:16:36;3.30;91.30
9820;DHT22;4949;48.482;9.206;2023-12-04T20:21:40;3.20;91.20
9820;DHT22;4949;48.482;9.206;2023-12-04T20:26:43;3.20;90.40
9820;DHT22;4949;48.482;9.206;2023-12-04T20:31:49;3.10;90.50
9820;DHT22;4949;48.482;9.206;2023-12-04T20:36:53;2.90;90.60
9820;DHT22;4949;48.482;9.206;2023-12-04T20:41:58;2.90;90.70
9820;DHT22;4949;48.482;9.206;2023-12-04T20:47:01;3.00;91.40
9820;DHT22;4949;48.482;9.206;2023-12-04T20:52:05;2.90;91.00
9820;DHT22;4949;48.482;9.206;2023-12-04T20:57:08;2.90;90.70
9820;DHT22;4949;48.482;9.206;2023-12-04T21:02:18;2.90;90.90
9820;DHT22;4949;48.482;9.206;2023-12-04T21:07:24;2.80;91.30
9820;DHT22;4949;48.482;9.206;2023-12-04T21:12:24;2.50;91.10
9820;DHT22;4949;48.482;9.206;2023-12-04T21:17:27;3.20;91.20
9820;DHT22;4949;48.482;9.206;2023-12-04T21:22:30;2.90;91.70
9820;DHT22;4949;48.482;9.206;2023-12-04T21:27:31;3.00;92.30
9820;DHT22;4949;48.482;9.206;2023-12-04T21:32:32;2.60;92.60
9820;DHT22;4949;48.482;9.206;2023-12-04T21:37:37;3.10;92.50
9820;DHT22;4949;48.482;9.206;2023-12-04T21:42:39;2.80;92.70
9820;DHT22;4949;48.482;9.206;2023-12-04T21:47:46;3.40;92.90
9820;DHT22;4949;48.482;9.206;2023-12-04T21:52:52;3.10;92.40
9820;DHT22;4949;48.482;9.206;2023-12-04T21:57:58;3.20;92.60
9820;DHT22;4949;48.482;9.206;2023-12-04T22:03:01;3.30;93.00
9820;DHT22;4949;48.482;9.206;2023-12-04T22:08:03;3.40;93.20
9820;DHT22;4949;48.482;9.206;2023-12-04T22:13:06;3.50;93.20
9820;DHT22;4949;48.482;9.206;2023-12-04T22:18:08;3.60;93.80
9820;DHT22;4949;48.482;9.206;2023-12-04T22:23:08;3.60;94.20
9820;DHT22;4949;48.482;9.206;2023-12-04T22:28:10;3.70;93.90
9820;DHT22;4949;48.482;9.206;2023-12-04T22:33:10;3.80;93.70
9820;DHT22;4949;48.482;9.206;2023-12-04T22:38:11;3.70;93.60
9820;DHT22;4949;48.482;9.206;2023-12-04T22:43:17;3.70;93.80
9820;DHT22;4949;48.482;9.206;2023-12-04T22:48:23;4.00;94.00
9820;DHT22;4949;48.482;9.206;2023-12-04T22:53:26;3.70;94.50
9820;DHT22;4949;48.482;9.206;2023-12-04T22:58:29;4.10;94.40
9820;DHT22;4949;48.482;9.206;2023-12-04T23:03:32;3.50;94.50
9820;DHT22;4949;48.482;9.206;2023-12-04T23:08:35;3.90;94.90
9820;DHT22;4949;48.482;9.206;2023-12-04T23:13:36;4.00;95.50
9820;DHT22;4949;48.482;9.206;2023-12-04T23:18:37;4.10;95.50
9820;DHT22;4949;48.482;9.206;2023-12-04T23:23:38;4.20;95.80
9820;DHT22;4949;48.482;9.206;2023-12-04T23:28:41;4.30;96.00
9820;DHT22;4949;48.482;9.206;2023-12-04T23:33:42;4.30;96.70
9820;DHT22;4949;48.482;9.206;2023-12-04T23:38:42;4.80;97.30
9820;DHT22;4949;48.482;9.206;2023-12-04T23:43:46;4.30;97.40
9820;DHT22;4949;48.482;9.206;2023-12-04T23:48:46;4.30;97.50
9820;DHT22;4949;48.482;9.206;2023-12-04T23:53:52;4.40;97.60
9820;DHT22;4949;48.482;9.206;2023-12-04T23:58:56;4.30;97.50
